createdAt,value
2019-02-06T00:01:53.942Z,18.93
2019-02-06T00:04:22.586Z,20.80
2019-02-06T00:06:51.204Z,19.03
2019-02-06T00:09:19.835Z,24.60
2019-02-06T00:11:48.482Z,21.20
2019-02-06T00:14:17.137Z,19.20
2019-02-06T00:16:45.835Z,21.80
2019-02-06T00:19:14.492Z,26.17
2019-02-06T00:21:43.116Z,22.60
2019-02-06T00:24:12.160Z,23.70
2019-02-06T00:26:40.786Z,19.30
2019-02-06T00:29:09.655Z,29.90
2019-02-06T00:31:38.238Z,22.20
2019-02-06T00:34:06.931Z,21.83
2019-02-06T00:36:38.707Z,20.77
2019-02-06T00:39:08.986Z,23.37
2019-02-06T00:41:37.580Z,24.67
2019-02-06T00:44:08.917Z,22.17
2019-02-06T00:46:37.563Z,19.43
2019-02-06T00:49:06.115Z,17.37
2019-02-06T00:51:34.690Z,22.80
2019-02-06T00:54:03.228Z,23.20
2019-02-06T00:56:33.348Z,19.80
2019-02-06T00:59:05.393Z,24.20
2019-02-06T01:01:33.978Z,23.23
2019-02-06T01:04:05.554Z,20.20
2019-02-06T01:06:34.194Z,21.60
2019-02-06T01:09:02.810Z,19.67
2019-02-06T01:11:31.386Z,22.83
2019-02-06T01:14:01.973Z,23.30
2019-02-06T01:16:30.644Z,21.60
2019-02-06T01:18:59.200Z,18.37
2019-02-06T01:21:28.149Z,23.13
2019-02-06T01:24:00.176Z,19.70
2019-02-06T01:26:28.782Z,21.83
2019-02-06T01:28:57.658Z,22.00
2019-02-06T01:31:26.408Z,18.40
2019-02-06T01:33:55.365Z,23.00
2019-02-06T01:36:24.327Z,22.67
2019-02-06T01:38:52.880Z,22.60
2019-02-06T01:41:21.454Z,24.90
2019-02-06T01:43:50.002Z,23.47
2019-02-06T01:46:18.913Z,23.03
2019-02-06T01:48:47.536Z,21.23
2019-02-06T01:51:16.184Z,30.93
2019-02-06T01:53:45.366Z,18.33
2019-02-06T01:56:13.950Z,31.17
2019-02-06T01:58:42.508Z,24.40
2019-02-06T02:01:11.503Z,21.37
2019-02-06T02:03:40.075Z,25.50
2019-02-06T02:06:09.029Z,27.20
2019-02-06T02:08:39.313Z,28.10
2019-02-06T02:11:07.964Z,28.87
2019-02-06T02:13:36.505Z,23.33
2019-02-06T02:16:05.402Z,21.60
2019-02-06T02:18:33.984Z,23.47
2019-02-06T02:21:05.680Z,26.60
2019-02-06T02:23:34.337Z,20.57
2019-02-06T02:26:02.886Z,25.33
2019-02-06T02:28:31.466Z,27.73
2019-02-06T02:31:03.167Z,26.33
2019-02-06T02:33:31.915Z,23.67
2019-02-06T02:36:15.278Z,29.60
2019-02-06T02:38:33.882Z,28.93
2019-02-06T02:41:05.501Z,21.20
2019-02-06T02:43:34.080Z,23.00
2019-02-06T02:46:02.631Z,23.50
2019-02-06T02:48:33.990Z,26.60
2019-02-06T02:51:05.822Z,24.93
2019-02-06T02:53:34.645Z,26.93
2019-02-06T02:56:03.202Z,28.03
2019-02-06T02:58:34.454Z,22.93
2019-02-06T03:01:16.893Z,29.10
2019-02-06T03:03:50.665Z,29.57
2019-02-06T03:06:27.477Z,26.00
2019-02-06T03:08:49.520Z,28.13
2019-02-06T03:11:18.078Z,34.50
2019-02-06T03:13:46.660Z,26.97
2019-02-06T03:16:15.213Z,37.57
2019-02-06T03:18:43.865Z,29.37
2019-02-06T03:21:15.161Z,37.87
2019-02-06T03:23:43.811Z,30.73
2019-02-06T03:26:12.988Z,34.27
2019-02-06T03:28:44.209Z,37.23
2019-02-06T03:31:12.781Z,41.73
2019-02-06T03:33:41.357Z,39.90
2019-02-06T03:36:09.909Z,29.10
2019-02-06T03:38:38.561Z,31.23
2019-02-06T03:41:07.189Z,28.13
2019-02-06T03:43:36.155Z,36.20
2019-02-06T03:46:07.533Z,44.67
2019-02-06T03:48:36.115Z,34.07
2019-02-06T03:51:05.389Z,33.23
2019-02-06T03:53:33.971Z,30.40
2019-02-06T03:56:08.328Z,35.00
2019-02-06T03:58:36.974Z,30.17
2019-02-06T04:01:05.779Z,30.70
2019-02-06T04:03:34.365Z,25.30
2019-02-06T04:06:06.740Z,36.23
2019-02-06T04:08:35.396Z,33.30
2019-02-06T04:11:04.025Z,33.53
2019-02-06T04:13:35.929Z,36.43
2019-02-06T04:16:04.647Z,31.73
2019-02-06T04:18:33.258Z,40.87
2019-02-06T04:21:05.138Z,28.67
2019-02-06T04:23:33.786Z,37.17
2019-02-06T04:26:05.489Z,35.73
2019-02-06T04:28:34.148Z,37.70
2019-02-06T04:31:02.706Z,36.67
2019-02-06T04:33:34.018Z,42.17
2019-02-06T04:36:05.641Z,40.70
2019-02-06T04:38:34.271Z,38.13
2019-02-06T04:41:02.856Z,40.50
2019-02-06T04:43:31.434Z,38.47
2019-02-06T04:46:02.022Z,41.70
2019-02-06T04:48:32.369Z,33.70
2019-02-06T04:51:00.978Z,43.90
2019-02-06T04:53:31.528Z,34.73
2019-02-06T04:56:01.969Z,39.87
2019-02-06T04:58:32.418Z,44.77
2019-02-06T05:01:01.070Z,41.03
2019-02-06T05:03:32.445Z,45.63
2019-02-06T05:06:01.072Z,40.23
2019-02-06T05:08:29.617Z,44.57
2019-02-06T05:10:58.284Z,48.17
2019-02-06T05:13:26.843Z,51.90
2019-02-06T05:15:55.423Z,48.40
2019-02-06T05:18:24.053Z,49.60
2019-02-06T05:20:52.815Z,63.80
2019-02-06T05:23:21.443Z,40.73
2019-02-06T05:25:50.065Z,54.83
2019-02-06T05:28:18.727Z,51.27
2019-02-06T05:30:47.287Z,43.00
2019-02-06T05:33:15.856Z,45.13
2019-02-06T05:35:44.470Z,52.37
2019-02-06T05:38:13.029Z,45.17
2019-02-06T05:40:41.624Z,59.30
2019-02-06T05:43:10.201Z,52.07
2019-02-06T05:45:38.858Z,47.00
2019-02-06T05:48:07.422Z,48.10
2019-02-06T05:50:36.005Z,56.77
2019-02-06T05:53:05.081Z,50.80
2019-02-06T05:55:33.738Z,59.83
2019-02-06T05:58:02.665Z,62.27
2019-02-06T06:00:35.307Z,56.97
2019-02-06T06:03:04.239Z,52.87
2019-02-06T06:05:32.817Z,51.80
2019-02-06T06:08:01.381Z,72.40
2019-02-06T06:10:32.567Z,58.70
2019-02-06T06:13:03.866Z,55.97
2019-02-06T06:15:34.352Z,64.70
2019-02-06T06:18:02.909Z,49.17
2019-02-06T06:20:31.504Z,56.30
2019-02-06T06:23:02.373Z,47.33
2019-02-06T06:25:33.947Z,54.10
2019-02-06T06:28:05.540Z,48.60
2019-02-06T06:30:34.119Z,56.80
2019-02-06T06:33:02.764Z,56.23
2019-02-06T06:35:31.492Z,59.20
2019-02-06T06:38:03.031Z,61.97
2019-02-06T06:40:32.010Z,62.20
2019-02-06T06:43:02.314Z,55.47
2019-02-06T06:45:30.956Z,58.80
2019-02-06T06:47:59.586Z,62.20
2019-02-06T06:50:28.165Z,55.10
2019-02-06T06:52:56.805Z,49.63
2019-02-06T06:55:26.074Z,61.80
2019-02-06T06:57:54.652Z,60.40
2019-02-06T07:00:28.083Z,59.70
2019-02-06T07:02:57.147Z,61.17
2019-02-06T07:05:25.892Z,59.03
2019-02-06T07:07:54.811Z,61.63
2019-02-06T07:10:23.708Z,56.13
2019-02-06T07:12:52.437Z,57.97
2019-02-06T07:15:23.914Z,57.97
2019-02-06T07:17:52.562Z,65.93
2019-02-06T07:20:21.355Z,60.77
2019-02-06T07:22:50.062Z,74.90
2019-02-06T07:25:20.248Z,66.70
2019-02-06T07:27:49.010Z,66.87
2019-02-06T07:30:32.279Z,59.23
2019-02-06T07:33:00.922Z,62.87
2019-02-06T07:35:32.684Z,63.70
2019-02-06T07:38:03.053Z,56.13
2019-02-06T07:40:33.349Z,68.37
2019-02-06T07:43:05.098Z,69.73
2019-02-06T07:45:33.717Z,70.80
2019-02-06T07:48:03.907Z,70.07
2019-02-06T07:50:35.598Z,68.23
2019-02-06T07:53:04.256Z,50.77
2019-02-06T07:55:32.856Z,56.40
2019-02-06T07:58:03.220Z,56.43
2019-02-06T08:00:34.656Z,52.60
2019-02-06T08:03:03.306Z,56.50
2019-02-06T08:05:34.534Z,54.90
2019-02-06T08:08:03.117Z,53.27
2019-02-06T08:10:34.588Z,57.43
2019-02-06T08:13:03.736Z,50.90
2019-02-06T08:15:33.938Z,53.57
2019-02-06T08:18:06.234Z,54.10
2019-02-06T08:20:35.228Z,49.37
2019-02-06T08:23:03.885Z,54.60
2019-02-06T08:25:33.990Z,55.23
2019-02-06T08:28:05.880Z,50.57
2019-02-06T08:30:37.186Z,47.50
2019-02-06T08:33:06.210Z,45.77
2019-02-06T08:35:35.045Z,45.50
2019-02-06T08:38:03.699Z,43.13
2019-02-06T08:40:33.183Z,48.17
2019-02-06T08:43:04.944Z,50.70
2019-02-06T08:45:33.565Z,51.90
2019-02-06T08:48:02.241Z,54.73
2019-02-06T08:50:31.315Z,43.80
2019-02-06T08:53:03.063Z,41.77
2019-02-06T08:55:33.269Z,40.53
2019-02-06T08:58:03.394Z,41.33
2019-02-06T09:00:34.441Z,47.77
2019-02-06T09:03:03.563Z,46.73
2019-02-06T09:05:32.236Z,44.57
2019-02-06T09:08:00.983Z,40.80
2019-02-06T09:10:31.055Z,39.00
2019-02-06T09:13:02.222Z,44.80
2019-02-06T09:15:31.216Z,51.30
2019-02-06T09:18:01.783Z,42.30
2019-02-06T09:20:31.469Z,48.77
2019-02-06T09:23:01.751Z,39.17
2019-02-06T09:25:30.471Z,42.93
2019-02-06T09:28:01.400Z,38.40
2019-02-06T09:30:31.830Z,39.13
2019-02-06T09:33:03.195Z,38.57
2019-02-06T09:35:33.267Z,39.87
2019-02-06T09:38:05.549Z,33.67
2019-02-06T09:40:34.102Z,33.40
2019-02-06T09:43:05.498Z,36.30
2019-02-06T09:45:34.076Z,33.53
2019-02-06T09:48:03.476Z,33.63
2019-02-06T09:50:36.710Z,32.73
2019-02-06T09:53:05.503Z,29.70
2019-02-06T09:55:34.159Z,29.43
2019-02-06T09:58:06.185Z,29.40
2019-02-06T10:00:36.913Z,30.70
2019-02-06T10:03:08.858Z,30.07
2019-02-06T10:05:37.600Z,31.70
2019-02-06T10:08:06.511Z,27.87
2019-02-06T10:10:38.216Z,28.03
2019-02-06T10:13:07.515Z,29.10
2019-02-06T10:15:38.341Z,31.90
2019-02-06T10:18:07.339Z,29.47
2019-02-06T10:20:38.460Z,33.73
2019-02-06T10:23:07.755Z,31.27
2019-02-06T10:25:36.873Z,23.87
2019-02-06T10:28:05.800Z,31.60
2019-02-06T10:30:43.162Z,30.33
2019-02-06T10:33:11.851Z,33.77
2019-02-06T10:35:40.425Z,30.53
2019-02-06T10:38:09.829Z,30.73
2019-02-06T10:40:39.127Z,30.67
2019-02-06T10:43:10.624Z,27.10
2019-02-06T10:45:39.658Z,27.93
2019-02-06T10:48:08.459Z,27.63
2019-02-06T10:50:43.178Z,26.80
2019-02-06T10:53:11.899Z,26.90
2019-02-06T10:55:40.543Z,28.90
2019-02-06T10:58:09.160Z,32.73
2019-02-06T11:00:41.729Z,25.20
2019-02-06T11:03:10.446Z,27.20
2019-02-06T11:05:39.578Z,24.10
2019-02-06T11:08:08.306Z,25.97
2019-02-06T11:10:36.886Z,23.70
2019-02-06T11:13:06.061Z,22.27
2019-02-06T11:15:38.123Z,26.03
2019-02-06T11:18:07.513Z,23.70
2019-02-06T11:20:38.521Z,20.57
2019-02-06T11:23:08.314Z,26.83
2019-02-06T11:25:37.415Z,26.50
2019-02-06T11:28:07.310Z,22.67
2019-02-06T11:30:37.981Z,19.97
2019-02-06T11:33:08.076Z,15.17
2019-02-06T11:35:37.087Z,20.97
2019-02-06T11:38:08.871Z,21.43
2019-02-06T11:40:37.576Z,16.30
2019-02-06T11:43:06.670Z,16.77
2019-02-06T11:45:36.584Z,16.97
2019-02-06T11:48:05.976Z,19.87
2019-02-06T11:50:39.320Z,21.83
2019-02-06T11:53:09.503Z,16.80
2019-02-06T11:55:38.150Z,18.07
2019-02-06T11:58:10.618Z,14.77
2019-02-06T12:00:48.376Z,20.67
2019-02-06T12:03:16.382Z,16.43
2019-02-06T12:05:44.945Z,16.83
2019-02-06T12:08:13.497Z,17.67
2019-02-06T12:10:42.215Z,15.47
2019-02-06T12:13:10.835Z,14.10
2019-02-06T12:15:39.549Z,13.50
2019-02-06T12:18:08.238Z,14.07
2019-02-06T12:20:37.148Z,14.30
2019-02-06T12:23:06.321Z,15.80
2019-02-06T12:25:35.335Z,14.97
2019-02-06T12:28:05.285Z,17.67
2019-02-06T12:30:36.521Z,16.80
2019-02-06T12:33:08.012Z,17.73
2019-02-06T12:35:36.558Z,18.73
2019-02-06T12:38:05.788Z,16.00
2019-02-06T12:40:37.736Z,15.40
2019-02-06T12:43:10.363Z,12.80
2019-02-06T12:45:37.772Z,17.90
2019-02-06T12:48:09.418Z,15.70
2019-02-06T12:50:38.405Z,17.43
2019-02-06T12:53:07.506Z,15.57
2019-02-06T12:55:40.795Z,16.57
2019-02-06T12:58:09.798Z,13.73
2019-02-06T13:00:45.246Z,18.03
2019-02-06T13:03:13.990Z,17.27
2019-02-06T13:05:42.674Z,18.60
2019-02-06T13:08:12.881Z,16.50
2019-02-06T13:10:41.866Z,21.60
2019-02-06T13:13:10.443Z,16.10
2019-02-06T13:15:39.117Z,13.40
2019-02-06T13:18:07.795Z,14.50
2019-02-06T13:20:37.498Z,13.80
2019-02-06T13:23:07.119Z,19.50
2019-02-06T13:25:35.742Z,19.10
2019-02-06T13:28:05.164Z,13.30
2019-02-06T13:30:37.454Z,13.33
2019-02-06T13:33:07.765Z,16.53
2019-02-06T13:35:37.281Z,17.47
2019-02-06T13:38:08.377Z,16.07
2019-02-06T13:40:45.771Z,22.27
2019-02-06T13:43:08.107Z,12.23
2019-02-06T13:45:39.853Z,15.40
2019-02-06T13:48:11.342Z,16.73
2019-02-06T13:50:40.119Z,15.37
2019-02-06T13:53:09.238Z,18.60
2019-02-06T13:55:37.954Z,15.57
2019-02-06T13:58:07.355Z,20.83
2019-02-06T14:00:38.960Z,12.90
2019-02-06T14:03:08.274Z,12.30
2019-02-06T14:05:39.148Z,15.00
2019-02-06T14:08:15.359Z,16.70
2019-02-06T14:10:44.453Z,16.73
2019-02-06T14:13:16.128Z,14.67
2019-02-06T14:15:47.115Z,11.20
2019-02-06T14:18:15.765Z,17.67
2019-02-06T14:20:45.876Z,15.63
2019-02-06T14:23:45.401Z,14.80
2019-02-06T14:26:19.920Z,13.50
2019-02-06T14:29:06.596Z,15.47
2019-02-06T14:31:38.193Z,14.67
2019-02-06T14:34:43.560Z,16.10
2019-02-06T14:37:20.480Z,13.00
2019-02-06T14:40:06.660Z,13.40
2019-02-06T14:42:59.519Z,18.87
2019-02-06T14:45:51.535Z,13.57
2019-02-06T14:48:25.908Z,17.30
2019-02-06T14:51:09.966Z,17.00
2019-02-06T14:53:44.420Z,20.10
2019-02-06T14:56:37.418Z,17.30
2019-02-06T14:59:24.376Z,16.10
2019-02-06T15:02:23.239Z,18.07
2019-02-06T15:05:03.793Z,17.57
2019-02-06T15:07:44.364Z,17.80
2019-02-06T15:10:35.870Z,17.87
2019-02-06T15:13:12.375Z,14.27
2019-02-06T15:16:17.910Z,20.47
2019-02-06T15:18:55.528Z,15.97
2019-02-06T15:21:45.039Z,17.30
2019-02-06T15:24:37.661Z,16.37
2019-02-06T15:27:30.534Z,21.40
2019-02-06T15:30:19.752Z,20.23
2019-02-06T15:33:07.552Z,16.37
2019-02-06T15:36:04.859Z,15.97
2019-02-06T15:38:39.177Z,17.83
2019-02-06T15:41:14.354Z,22.10
2019-02-06T15:43:58.074Z,17.80
2019-02-06T15:46:44.347Z,16.67
2019-02-06T15:49:40.613Z,21.50
2019-02-06T15:52:36.608Z,18.70
2019-02-06T15:55:28.183Z,22.37
2019-02-06T15:58:22.618Z,21.43
2019-02-06T16:00:54.525Z,23.60
2019-02-06T16:03:30.615Z,21.53
2019-02-06T16:06:12.902Z,29.73
2019-02-06T16:08:50.528Z,31.40
2019-02-06T16:11:42.024Z,26.77
2019-02-06T16:14:43.802Z,22.77
2019-02-06T16:17:27.335Z,27.70
2019-02-06T16:20:14.060Z,22.80
2019-02-06T16:22:54.222Z,19.93
2019-02-06T16:25:37.852Z,23.30
2019-02-06T16:28:26.722Z,28.27
2019-02-06T16:31:23.150Z,22.53
2019-02-06T16:34:22.166Z,36.93
2019-02-06T16:37:02.186Z,23.80
2019-02-06T16:39:33.816Z,26.37
2019-02-06T16:42:05.444Z,24.60
2019-02-06T16:44:46.043Z,24.20
2019-02-06T16:47:45.622Z,23.17
2019-02-06T16:50:32.307Z,20.60
2019-02-06T16:53:09.774Z,27.07
2019-02-06T16:56:02.503Z,21.73
2019-02-06T16:58:36.887Z,23.33
2019-02-06T17:01:17.105Z,20.33
2019-02-06T17:03:57.998Z,23.20
2019-02-06T17:06:29.609Z,23.90
2019-02-06T17:09:23.076Z,20.93
2019-02-06T17:12:04.097Z,26.87
2019-02-06T17:14:40.373Z,24.10
2019-02-06T17:17:14.632Z,20.60
2019-02-06T17:20:17.862Z,24.57
2019-02-06T17:23:04.435Z,24.83
2019-02-06T17:25:41.665Z,20.47
2019-02-06T17:28:19.051Z,20.90
2019-02-06T17:30:53.126Z,19.73
2019-02-06T17:33:52.015Z,20.67
2019-02-06T17:36:32.658Z,29.20
2019-02-06T17:39:23.871Z,21.97
2019-02-06T17:41:49.752Z,24.83
2019-02-06T17:44:24.422Z,20.30
2019-02-06T17:46:56.055Z,26.57
2019-02-06T17:49:48.743Z,21.10
2019-02-06T17:52:55.159Z,21.93
2019-02-06T17:55:26.042Z,22.17
2019-02-06T17:57:55.465Z,24.63
2019-02-06T18:00:38.941Z,23.33
2019-02-06T18:03:11.267Z,27.93
2019-02-06T18:05:40.645Z,23.40
2019-02-06T18:08:09.213Z,21.53
2019-02-06T18:10:37.785Z,20.67
2019-02-06T18:13:07.292Z,20.37
2019-02-06T18:15:36.231Z,23.37
2019-02-06T18:18:06.357Z,20.00
2019-02-06T18:20:34.990Z,20.10
2019-02-06T18:23:04.224Z,28.67
2019-02-06T18:25:32.787Z,22.10
2019-02-06T18:28:01.830Z,25.00
2019-02-06T18:30:35.501Z,25.97
2019-02-06T18:33:07.352Z,19.63
2019-02-06T18:35:36.055Z,32.07
2019-02-06T18:38:06.705Z,27.90
2019-02-06T18:40:35.353Z,24.17
2019-02-06T18:43:04.356Z,23.50
2019-02-06T18:45:32.970Z,22.60
2019-02-06T18:48:04.583Z,22.00
2019-02-06T18:50:34.679Z,26.10
2019-02-06T18:53:07.386Z,27.60
2019-02-06T18:55:36.347Z,25.63
2019-02-06T18:58:07.322Z,25.50
2019-02-06T19:00:39.356Z,21.53
2019-02-06T19:03:19.564Z,22.30
2019-02-06T19:05:48.772Z,19.67
2019-02-06T19:08:20.446Z,29.03
2019-02-06T19:10:49.929Z,25.80
2019-02-06T19:13:18.952Z,23.33
2019-02-06T19:15:56.227Z,26.47
2019-02-06T19:18:17.878Z,21.53
2019-02-06T19:20:46.799Z,27.57
2019-02-06T19:23:15.555Z,22.30
2019-02-06T19:25:44.208Z,24.37
2019-02-06T19:28:13.088Z,25.03
2019-02-06T19:30:43.588Z,19.83
2019-02-06T19:33:12.241Z,24.93
2019-02-06T19:35:42.099Z,28.23
2019-02-06T19:38:10.827Z,30.37
2019-02-06T19:40:39.402Z,28.43
2019-02-06T19:43:07.962Z,27.50
2019-02-06T19:45:36.995Z,30.13
2019-02-06T19:48:15.801Z,26.90
2019-02-06T19:50:39.279Z,19.50
2019-02-06T19:53:07.982Z,22.70
2019-02-06T19:55:36.845Z,22.40
2019-02-06T19:58:09.542Z,25.83
2019-02-06T20:00:38.365Z,29.17
2019-02-06T20:03:10.293Z,28.20
2019-02-06T20:05:41.586Z,27.20
2019-02-06T20:08:10.695Z,24.93
2019-02-06T20:10:45.230Z,24.27
2019-02-06T20:13:14.681Z,22.70
2019-02-06T20:15:43.734Z,27.70
2019-02-06T20:18:12.687Z,28.73
2019-02-06T20:20:41.327Z,21.90
2019-02-06T20:23:10.288Z,28.60
2019-02-06T20:25:38.948Z,30.27
2019-02-06T20:28:07.590Z,28.93
2019-02-06T20:30:37.227Z,23.13
2019-02-06T20:33:10.564Z,23.90
2019-02-06T20:35:36.694Z,26.27
2019-02-06T20:38:05.403Z,24.00
2019-02-06T20:40:36.631Z,36.23
2019-02-06T20:43:05.818Z,22.27
2019-02-06T20:45:34.769Z,27.27
2019-02-06T20:48:03.422Z,28.33
2019-02-06T20:50:38.790Z,29.70
2019-02-06T20:53:07.499Z,28.60
2019-02-06T20:55:36.084Z,22.77
2019-02-06T20:58:04.811Z,26.87
2019-02-06T21:00:41.767Z,27.97
2019-02-06T21:03:10.796Z,21.83
2019-02-06T21:05:39.560Z,29.60
2019-02-06T21:08:08.373Z,28.90
2019-02-06T21:10:37.395Z,26.30
2019-02-06T21:13:06.796Z,26.30
2019-02-06T21:15:35.716Z,29.43
2019-02-06T21:18:05.065Z,26.03
2019-02-06T21:20:33.661Z,33.53
2019-02-06T21:23:03.723Z,25.27
2019-02-06T21:25:32.757Z,28.50
2019-02-06T21:28:01.329Z,25.43
2019-02-06T21:30:40.996Z,30.33
2019-02-06T21:33:09.655Z,24.10
2019-02-06T21:35:38.708Z,23.53
2019-02-06T21:38:07.740Z,26.53
2019-02-06T21:40:37.464Z,29.37
2019-02-06T21:43:06.959Z,19.70
2019-02-06T21:45:35.678Z,27.40
2019-02-06T21:48:05.042Z,24.73
2019-02-06T21:50:34.032Z,29.60
2019-02-06T21:53:05.366Z,23.20
2019-02-06T21:55:34.376Z,22.33
2019-02-06T21:58:02.935Z,25.50
2019-02-06T22:00:52.392Z,26.53
2019-02-06T22:03:21.043Z,24.60
2019-02-06T22:05:50.104Z,24.47
2019-02-06T22:08:18.661Z,22.33
2019-02-06T22:10:47.222Z,26.07
2019-02-06T22:13:15.787Z,23.60
2019-02-06T22:15:44.433Z,25.73
2019-02-06T22:18:13.307Z,23.57
2019-02-06T22:20:41.871Z,25.87
2019-02-06T22:23:10.485Z,26.43
2019-02-06T22:25:39.143Z,29.33
2019-02-06T22:28:08.022Z,23.90
2019-02-06T22:30:36.627Z,28.90
2019-02-06T22:33:05.562Z,26.07
2019-02-06T22:35:34.286Z,24.13
2019-02-06T22:38:02.857Z,24.10
2019-02-06T22:40:31.513Z,24.47
2019-02-06T22:43:02.891Z,24.80
2019-02-06T22:45:34.147Z,29.40
2019-02-06T22:48:03.101Z,30.43
2019-02-06T22:50:33.188Z,28.30
2019-02-06T22:53:01.958Z,22.80
2019-02-06T22:55:32.221Z,26.20
2019-02-06T22:58:00.856Z,22.13
2019-02-06T23:00:50.417Z,28.50
2019-02-06T23:03:25.337Z,20.67
2019-02-06T23:05:53.965Z,21.13
2019-02-06T23:08:25.524Z,21.60
2019-02-06T23:10:54.145Z,23.67
2019-02-06T23:13:22.830Z,24.63
2019-02-06T23:15:51.457Z,24.10
2019-02-06T23:18:20.096Z,27.00
2019-02-06T23:20:48.864Z,24.30
2019-02-06T23:23:17.476Z,21.33
2019-02-06T23:25:46.040Z,18.67
2019-02-06T23:28:14.992Z,21.90
2019-02-06T23:30:43.634Z,19.03
2019-02-06T23:33:12.364Z,19.10
2019-02-06T23:35:40.916Z,22.30
2019-02-06T23:38:09.649Z,25.97
2019-02-06T23:40:38.276Z,24.57
2019-02-06T23:43:07.266Z,18.70
2019-02-06T23:45:35.960Z,19.93
2019-02-06T23:48:05.273Z,21.67
2019-02-06T23:50:33.912Z,21.73
2019-02-06T23:53:06.323Z,22.80
2019-02-06T23:55:34.951Z,25.47
2019-02-06T23:58:03.812Z,22.30
